sensor_id;sensor_type;location;lat;lon;timestamp;temperature;humidity
20432;DHT22;10375;49.136;10.366;2023-09-19T00:00:44;16.60;99.90
20432;DHT22;10375;49.136;10.366;2023-09-19T00:03:15;16.60;99.90
20432;DHT22;10375;49.136;10.366;2023-09-19T00:05:43;16.60;99.90
20432;DHT22;10375;49.136;10.366;2023-09-19T00:08:13;16.60;99.90
20432;DHT22;10375;49.136;10.366;2023-09-19T00:10:42;16.60;99.90
20432;DHT22;10375;49.136;10.366;2023-09-19T00:13:10;16.70;99.90
20432;DHT22;10375;49.136;10.366;2023-09-19T00:15:44;16.70;99.90
20432;DHT22;10375;49.136;10.366;2023-09-19T00:18:19;16.70;99.90
20432;DHT22;10375;49.136;10.366;2023-09-19T00:20:49;16.70;99.90
20432;DHT22;10375;49.136;10.366;2023-09-19T00:23:19;16.70;99.90
20432;DHT22;10375;49.136;10.366;2023-09-19T00:25:47;16.70;99.90
20432;DHT22;10375;49.136;10.366;2023-09-19T00:28:15;16.70;99.90
20432;DHT22;10375;49.136;10.366;2023-09-19T00:30:43;16.70;99.90
20432;DHT22;10375;49.136;10.366;2023-09-19T00:33:11;16.70;99.90
20432;DHT22;10375;49.136;10.366;2023-09-19T00:35:52;16.80;99.90
20432;DHT22;10375;49.136;10.366;2023-09-19T00:38:20;16.70;99.90
20432;DHT22;10375;49.136;10.366;2023-09-19T00:40:49;16.70;99.90
20432;DHT22;10375;49.136;10.366;2023-09-19T00:43:18;16.70;99.90
20432;DHT22;10375;49.136;10.366;2023-09-19T00:45:48;16.70;99.90
20432;DHT22;10375;49.136;10.366;2023-09-19T00:48:16;16.70;99.90
20432;DHT22;10375;49.136;10.366;2023-09-19T00:50:46;16.70;99.90
20432;DHT22;10375;49.136;10.366;2023-09-19T00:53:17;16.70;99.90
20432;DHT22;10375;49.136;10.366;2023-09-19T00:55:46;16.60;99.90
20432;DHT22;10375;49.136;10.366;2023-09-19T00:58:14;16.60;99.90
20432;DHT22;10375;49.136;10.366;2023-09-19T01:00:42;16.60;99.90
20432;DHT22;10375;49.136;10.366;2023-09-19T01:03:11;16.60;99.90
20432;DHT22;10375;49.136;10.366;2023-09-19T01:05:40;16.60;99.90
20432;DHT22;10375;49.136;10.366;2023-09-19T01:08:08;16.50;99.90
20432;DHT22;10375;49.136;10.366;2023-09-19T01:10:36;16.50;99.90
20432;DHT22;10375;49.136;10.366;2023-09-19T01:13:27;16.50;99.90
20432;DHT22;10375;49.136;10.366;2023-09-19T01:16:17;16.40;99.90
20432;DHT22;10375;49.136;10.366;2023-09-19T01:21:46;16.40;99.90
20432;DHT22;10375;49.136;10.366;2023-09-19T01:29:39;16.50;99.90
20432;DHT22;10375;49.136;10.366;2023-09-19T01:32:08;16.40;99.90
20432;DHT22;10375;49.136;10.366;2023-09-19T01:34:48;16.40;99.90
20432;DHT22;10375;49.136;10.366;2023-09-19T01:37:20;16.50;99.90
20432;DHT22;10375;49.136;10.366;2023-09-19T01:40:04;16.40;99.90
20432;DHT22;10375;49.136;10.366;2023-09-19T01:48:31;16.30;99.90
20432;DHT22;10375;49.136;10.366;2023-09-19T01:51:06;16.20;99.90
20432;DHT22;10375;49.136;10.366;2023-09-19T01:53:55;16.10;99.90
20432;DHT22;10375;49.136;10.366;2023-09-19T01:56:31;16.10;99.90
20432;DHT22;10375;49.136;10.366;2023-09-19T01:59:07;16.00;99.90
20432;DHT22;10375;49.136;10.366;2023-09-19T02:01:37;16.00;99.90
20432;DHT22;10375;49.136;10.366;2023-09-19T02:04:05;15.90;99.90
20432;DHT22;10375;49.136;10.366;2023-09-19T02:06:32;15.90;99.90
20432;DHT22;10375;49.136;10.366;2023-09-19T02:09:00;15.80;99.90
20432;DHT22;10375;49.136;10.366;2023-09-19T02:11:27;15.80;99.90
20432;DHT22;10375;49.136;10.366;2023-09-19T02:13:55;15.80;99.90
20432;DHT22;10375;49.136;10.366;2023-09-19T02:16:22;15.70;99.90
20432;DHT22;10375;49.136;10.366;2023-09-19T02:18:50;15.80;99.90
20432;DHT22;10375;49.136;10.366;2023-09-19T02:21:18;15.70;99.90
20432;DHT22;10375;49.136;10.366;2023-09-19T02:23:45;15.70;99.90
20432;DHT22;10375;49.136;10.366;2023-09-19T02:26:14;15.70;99.90
20432;DHT22;10375;49.136;10.366;2023-09-19T02:28:41;15.70;99.90
20432;DHT22;10375;49.136;10.366;2023-09-19T02:31:08;15.70;99.90
20432;DHT22;10375;49.136;10.366;2023-09-19T02:33:36;15.70;99.90
20432;DHT22;10375;49.136;10.366;2023-09-19T02:36:04;15.80;99.90
20432;DHT22;10375;49.136;10.366;2023-09-19T02:38:32;15.80;99.90
20432;DHT22;10375;49.136;10.366;2023-09-19T02:40:59;15.80;99.90
20432;DHT22;10375;49.136;10.366;2023-09-19T02:43:26;15.80;99.90
20432;DHT22;10375;49.136;10.366;2023-09-19T02:45:54;15.70;99.90
20432;DHT22;10375;49.136;10.366;2023-09-19T02:48:21;15.70;99.90
20432;DHT22;10375;49.136;10.366;2023-09-19T02:50:52;15.70;99.90
20432;DHT22;10375;49.136;10.366;2023-09-19T02:53:19;15.60;99.90
20432;DHT22;10375;49.136;10.366;2023-09-19T02:55:47;15.60;99.90
20432;DHT22;10375;49.136;10.366;2023-09-19T02:58:15;15.60;99.90
20432;DHT22;10375;49.136;10.366;2023-09-19T03:00:42;15.60;99.90
20432;DHT22;10375;49.136;10.366;2023-09-19T03:03:13;15.50;99.90
20432;DHT22;10375;49.136;10.366;2023-09-19T03:05:43;15.50;99.90
20432;DHT22;10375;49.136;10.366;2023-09-19T03:08:16;15.40;99.90
20432;DHT22;10375;49.136;10.366;2023-09-19T03:10:46;15.40;99.90
20432;DHT22;10375;49.136;10.366;2023-09-19T03:13:15;15.40;99.90
20432;DHT22;10375;49.136;10.366;2023-09-19T03:15:42;15.40;99.90
20432;DHT22;10375;49.136;10.366;2023-09-19T03:18:14;15.40;99.90
20432;DHT22;10375;49.136;10.366;2023-09-19T03:20:41;15.30;99.90
20432;DHT22;10375;49.136;10.366;2023-09-19T03:23:08;15.30;99.90
20432;DHT22;10375;49.136;10.366;2023-09-19T03:25:36;15.30;99.90
20432;DHT22;10375;49.136;10.366;2023-09-19T03:28:03;15.30;99.90
20432;DHT22;10375;49.136;10.366;2023-09-19T03:30:34;15.20;99.90
20432;DHT22;10375;49.136;10.366;2023-09-19T03:33:01;15.20;99.90
20432;DHT22;10375;49.136;10.366;2023-09-19T03:35:28;15.20;99.90
20432;DHT22;10375;49.136;10.366;2023-09-19T03:37:56;15.20;99.90
20432;DHT22;10375;49.136;10.366;2023-09-19T03:40:23;15.30;99.90
20432;DHT22;10375;49.136;10.366;2023-09-19T03:42:50;15.30;99.90
20432;DHT22;10375;49.136;10.366;2023-09-19T03:45:17;15.30;99.90
20432;DHT22;10375;49.136;10.366;2023-09-19T03:47:45;15.30;99.90
20432;DHT22;10375;49.136;10.366;2023-09-19T03:50:14;15.20;99.90
20432;DHT22;10375;49.136;10.366;2023-09-19T03:52:44;15.20;99.90
20432;DHT22;10375;49.136;10.366;2023-09-19T03:55:12;15.20;99.90
20432;DHT22;10375;49.136;10.366;2023-09-19T03:57:39;15.20;99.90
20432;DHT22;10375;49.136;10.366;2023-09-19T04:00:07;15.20;99.90
20432;DHT22;10375;49.136;10.366;2023-09-19T04:02:39;15.20;99.90
20432;DHT22;10375;49.136;10.366;2023-09-19T04:05:08;15.20;99.90
20432;DHT22;10375;49.136;10.366;2023-09-19T04:07:35;15.10;99.90
20432;DHT22;10375;49.136;10.366;2023-09-19T04:10:02;15.00;99.90
20432;DHT22;10375;49.136;10.366;2023-09-19T04:12:30;15.00;99.90
20432;DHT22;10375;49.136;10.366;2023-09-19T04:14:57;15.00;99.90
20432;DHT22;10375;49.136;10.366;2023-09-19T04:17:24;15.00;99.90
20432;DHT22;10375;49.136;10.366;2023-09-19T04:19:51;15.10;99.90
20432;DHT22;10375;49.136;10.366;2023-09-19T04:22:19;15.10;99.90
20432;DHT22;10375;49.136;10.366;2023-09-19T04:24:46;15.00;99.90
20432;DHT22;10375;49.136;10.366;2023-09-19T04:27:13;15.00;99.90
20432;DHT22;10375;49.136;10.366;2023-09-19T04:29:41;15.00;99.90
20432;DHT22;10375;49.136;10.366;2023-09-19T04:32:09;15.00;99.90
20432;DHT22;10375;49.136;10.366;2023-09-19T04:34:36;15.00;99.90
20432;DHT22;10375;49.136;10.366;2023-09-19T04:37:05;15.00;99.90
20432;DHT22;10375;49.136;10.366;2023-09-19T04:39:32;15.00;99.90
20432;DHT22;10375;49.136;10.366;2023-09-19T04:42:01;15.10;99.90
20432;DHT22;10375;49.136;10.366;2023-09-19T04:44:28;15.20;99.90
20432;DHT22;10375;49.136;10.366;2023-09-19T04:46:55;15.30;99.90
20432;DHT22;10375;49.136;10.366;2023-09-19T04:49:22;15.30;99.90
20432;DHT22;10375;49.136;10.366;2023-09-19T04:51:50;15.40;99.90
20432;DHT22;10375;49.136;10.366;2023-09-19T04:54:17;15.50;99.90
20432;DHT22;10375;49.136;10.366;2023-09-19T04:56:45;15.60;99.90
20432;DHT22;10375;49.136;10.366;2023-09-19T04:59:12;15.50;99.90
20432;DHT22;10375;49.136;10.366;2023-09-19T05:01:39;15.50;99.90
20432;DHT22;10375;49.136;10.366;2023-09-19T05:04:06;15.60;99.90
20432;DHT22;10375;49.136;10.366;2023-09-19T05:06:33;15.60;99.90
20432;DHT22;10375;49.136;10.366;2023-09-19T05:09:01;15.70;99.90
20432;DHT22;10375;49.136;10.366;2023-09-19T05:11:31;15.70;99.90
20432;DHT22;10375;49.136;10.366;2023-09-19T05:14:00;15.70;99.90
20432;DHT22;10375;49.136;10.366;2023-09-19T05:16:30;15.70;99.90
20432;DHT22;10375;49.136;10.366;2023-09-19T05:19:01;15.70;99.90
20432;DHT22;10375;49.136;10.366;2023-09-19T05:21:30;15.80;99.90
20432;DHT22;10375;49.136;10.366;2023-09-19T05:23:57;15.80;99.90
20432;DHT22;10375;49.136;10.366;2023-09-19T05:26:25;15.80;99.90
20432;DHT22;10375;49.136;10.366;2023-09-19T05:28:52;15.90;99.90
20432;DHT22;10375;49.136;10.366;2023-09-19T05:31:20;15.90;99.90
20432;DHT22;10375;49.136;10.366;2023-09-19T05:33:47;15.90;99.90
20432;DHT22;10375;49.136;10.366;2023-09-19T05:36:14;16.00;99.90
20432;DHT22;10375;49.136;10.366;2023-09-19T05:38:44;16.00;99.90
20432;DHT22;10375;49.136;10.366;2023-09-19T05:41:11;16.10;99.90
20432;DHT22;10375;49.136;10.366;2023-09-19T05:43:41;16.20;99.90
20432;DHT22;10375;49.136;10.366;2023-09-19T05:46:09;16.20;99.90
20432;DHT22;10375;49.136;10.366;2023-09-19T05:48:36;16.20;99.90
20432;DHT22;10375;49.136;10.366;2023-09-19T05:51:04;16.30;99.90
20432;DHT22;10375;49.136;10.366;2023-09-19T05:53:31;16.50;99.90
20432;DHT22;10375;49.136;10.366;2023-09-19T05:55:58;16.50;99.90
20432;DHT22;10375;49.136;10.366;2023-09-19T05:58:27;16.60;99.90
20432;DHT22;10375;49.136;10.366;2023-09-19T06:00:55;16.90;99.90
20432;DHT22;10375;49.136;10.366;2023-09-19T06:03:24;17.40;99.90
20432;DHT22;10375;49.136;10.366;2023-09-19T06:05:51;18.10;99.90
20432;DHT22;10375;49.136;10.366;2023-09-19T06:08:19;18.10;99.90
20432;DHT22;10375;49.136;10.366;2023-09-19T06:10:46;18.00;99.90
20432;DHT22;10375;49.136;10.366;2023-09-19T06:13:14;17.80;99.90
20432;DHT22;10375;49.136;10.366;2023-09-19T06:15:41;17.60;99.90
20432;DHT22;10375;49.136;10.366;2023-09-19T06:18:11;17.40;99.90
20432;DHT22;10375;49.136;10.366;2023-09-19T06:20:42;17.30;99.90
20432;DHT22;10375;49.136;10.366;2023-09-19T06:23:12;17.20;99.90
20432;DHT22;10375;49.136;10.366;2023-09-19T06:25:39;17.30;99.90
20432;DHT22;10375;49.136;10.366;2023-09-19T06:28:07;17.30;99.90
20432;DHT22;10375;49.136;10.366;2023-09-19T06:30:38;17.40;99.90
20432;DHT22;10375;49.136;10.366;2023-09-19T06:33:09;17.40;99.90
20432;DHT22;10375;49.136;10.366;2023-09-19T06:35:38;17.30;99.90
20432;DHT22;10375;49.136;10.366;2023-09-19T06:38:05;17.30;99.90
20432;DHT22;10375;49.136;10.366;2023-09-19T06:40:34;17.40;99.90
20432;DHT22;10375;49.136;10.366;2023-09-19T06:43:02;17.40;99.90
20432;DHT22;10375;49.136;10.366;2023-09-19T06:45:29;17.40;99.90
20432;DHT22;10375;49.136;10.366;2023-09-19T06:47:56;17.40;99.90
20432;DHT22;10375;49.136;10.366;2023-09-19T06:50:26;17.40;99.90
20432;DHT22;10375;49.136;10.366;2023-09-19T06:52:55;17.40;99.90
20432;DHT22;10375;49.136;10.366;2023-09-19T06:55:25;17.40;99.90
20432;DHT22;10375;49.136;10.366;2023-09-19T06:57:56;17.50;99.90
20432;DHT22;10375;49.136;10.366;2023-09-19T07:00:23;17.50;99.90
20432;DHT22;10375;49.136;10.366;2023-09-19T07:02:57;17.50;99.90
20432;DHT22;10375;49.136;10.366;2023-09-19T07:05:26;17.60;99.90
20432;DHT22;10375;49.136;10.366;2023-09-19T07:07:54;17.60;99.90
20432;DHT22;10375;49.136;10.366;2023-09-19T07:10:22;17.60;99.90
20432;DHT22;10375;49.136;10.366;2023-09-19T07:15:22;17.50;99.90
20432;DHT22;10375;49.136;10.366;2023-09-19T07:17:52;17.60;99.90
20432;DHT22;10375;49.136;10.366;2023-09-19T07:20:20;17.70;99.90
20432;DHT22;10375;49.136;10.366;2023-09-19T07:22:49;17.80;99.90
20432;DHT22;10375;49.136;10.366;2023-09-19T07:25:18;17.90;99.90
20432;DHT22;10375;49.136;10.366;2023-09-19T07:27:45;18.10;99.90
20432;DHT22;10375;49.136;10.366;2023-09-19T07:30:13;18.30;99.90
20432;DHT22;10375;49.136;10.366;2023-09-19T07:32:40;18.50;99.90
20432;DHT22;10375;49.136;10.366;2023-09-19T07:35:08;18.80;99.90
20432;DHT22;10375;49.136;10.366;2023-09-19T07:37:35;19.20;99.90
20432;DHT22;10375;49.136;10.366;2023-09-19T07:40:03;19.60;99.90
20432;DHT22;10375;49.136;10.366;2023-09-19T07:42:37;20.00;99.90
20432;DHT22;10375;49.136;10.366;2023-09-19T07:45:08;20.20;99.90
20432;DHT22;10375;49.136;10.366;2023-09-19T07:47:35;20.30;99.90
20432;DHT22;10375;49.136;10.366;2023-09-19T07:50:03;20.20;99.90
20432;DHT22;10375;49.136;10.366;2023-09-19T07:52:30;19.90;99.90
20432;DHT22;10375;49.136;10.366;2023-09-19T07:55:00;19.60;99.90
20432;DHT22;10375;49.136;10.366;2023-09-19T07:57:30;19.20;99.90
20432;DHT22;10375;49.136;10.366;2023-09-19T07:59:57;19.00;99.90
20432;DHT22;10375;49.136;10.366;2023-09-19T08:02:24;18.80;99.90
20432;DHT22;10375;49.136;10.366;2023-09-19T08:04:51;18.50;99.90
20432;DHT22;10375;49.136;10.366;2023-09-19T08:07:19;18.50;99.90
20432;DHT22;10375;49.136;10.366;2023-09-19T08:09:46;18.50;99.90
20432;DHT22;10375;49.136;10.366;2023-09-19T08:12:15;18.60;99.90
20432;DHT22;10375;49.136;10.366;2023-09-19T08:14:43;18.60;99.90
20432;DHT22;10375;49.136;10.366;2023-09-19T08:17:10;18.90;99.90
20432;DHT22;10375;49.136;10.366;2023-09-19T08:19:38;19.10;99.90
20432;DHT22;10375;49.136;10.366;2023-09-19T08:22:08;19.30;99.90
20432;DHT22;10375;49.136;10.366;2023-09-19T08:24:38;19.40;99.90
20432;DHT22;10375;49.136;10.366;2023-09-19T08:27:05;19.70;99.90
20432;DHT22;10375;49.136;10.366;2023-09-19T08:29:36;20.20;99.90
20432;DHT22;10375;49.136;10.366;2023-09-19T08:32:03;20.80;99.90
20432;DHT22;10375;49.136;10.366;2023-09-19T08:34:30;21.30;99.90
20432;DHT22;10375;49.136;10.366;2023-09-19T08:37:01;21.80;99.90
20432;DHT22;10375;49.136;10.366;2023-09-19T08:39:28;21.60;99.90
20432;DHT22;10375;49.136;10.366;2023-09-19T08:41:58;21.50;99.90
20432;DHT22;10375;49.136;10.366;2023-09-19T08:44:28;21.40;99.90
20432;DHT22;10375;49.136;10.366;2023-09-19T08:47:09;21.50;99.90
20432;DHT22;10375;49.136;10.366;2023-09-19T08:52:27;20.80;99.90
20432;DHT22;10375;49.136;10.366;2023-09-19T08:54:59;20.70;99.90
20432;DHT22;10375;49.136;10.366;2023-09-19T08:57:33;20.40;99.90
20432;DHT22;10375;49.136;10.366;2023-09-19T09:00:04;20.20;99.90
20432;DHT22;10375;49.136;10.366;2023-09-19T09:02:42;20.00;99.90
20432;DHT22;10375;49.136;10.366;2023-09-19T09:05:10;19.90;99.90
20432;DHT22;10375;49.136;10.366;2023-09-19T09:07:38;20.00;99.90
20432;DHT22;10375;49.136;10.366;2023-09-19T09:10:07;20.20;99.90
20432;DHT22;10375;49.136;10.366;2023-09-19T09:12:35;20.30;99.90
20432;DHT22;10375;49.136;10.366;2023-09-19T09:15:06;20.40;99.90
20432;DHT22;10375;49.136;10.366;2023-09-19T09:17:35;20.50;99.90
20432;DHT22;10375;49.136;10.366;2023-09-19T09:20:04;20.40;99.90
20432;DHT22;10375;49.136;10.366;2023-09-19T09:22:36;20.40;99.90
20432;DHT22;10375;49.136;10.366;2023-09-19T09:25:07;20.70;99.90
20432;DHT22;10375;49.136;10.366;2023-09-19T09:27:35;20.70;99.90
20432;DHT22;10375;49.136;10.366;2023-09-19T09:30:02;20.60;99.90
20432;DHT22;10375;49.136;10.366;2023-09-19T09:32:30;20.50;99.90
20432;DHT22;10375;49.136;10.366;2023-09-19T09:35:07;20.80;99.90
20432;DHT22;10375;49.136;10.366;2023-09-19T09:37:37;20.80;99.90
20432;DHT22;10375;49.136;10.366;2023-09-19T09:40:06;20.70;99.90
20432;DHT22;10375;49.136;10.366;2023-09-19T09:42:59;21.00;99.90
20432;DHT22;10375;49.136;10.366;2023-09-19T09:45:26;21.30;99.90
20432;DHT22;10375;49.136;10.366;2023-09-19T09:48:00;21.70;99.90
20432;DHT22;10375;49.136;10.366;2023-09-19T09:50:32;22.10;99.90
20432;DHT22;10375;49.136;10.366;2023-09-19T09:55:59;22.20;99.90
20432;DHT22;10375;49.136;10.366;2023-09-19T09:58:27;22.20;99.90
20432;DHT22;10375;49.136;10.366;2023-09-19T10:00:59;22.00;99.90
20432;DHT22;10375;49.136;10.366;2023-09-19T10:03:42;22.20;99.90
20432;DHT22;10375;49.136;10.366;2023-09-19T10:06:17;22.50;99.90
20432;DHT22;10375;49.136;10.366;2023-09-19T10:09:04;22.90;99.90
20432;DHT22;10375;49.136;10.366;2023-09-19T10:11:45;23.20;99.90
20432;DHT22;10375;49.136;10.366;2023-09-19T10:14:15;23.10;99.90
20432;DHT22;10375;49.136;10.366;2023-09-19T10:16:47;22.70;99.90
20432;DHT22;10375;49.136;10.366;2023-09-19T10:19:23;22.50;99.90
20432;DHT22;10375;49.136;10.366;2023-09-19T10:21:56;22.10;99.90
20432;DHT22;10375;49.136;10.366;2023-09-19T10:24:26;21.90;99.90
20432;DHT22;10375;49.136;10.366;2023-09-19T10:26:55;22.00;99.90
20432;DHT22;10375;49.136;10.366;2023-09-19T10:29:24;22.10;99.90
20432;DHT22;10375;49.136;10.366;2023-09-19T10:31:55;22.30;99.90
20432;DHT22;10375;49.136;10.366;2023-09-19T10:34:25;22.60;99.90
20432;DHT22;10375;49.136;10.366;2023-09-19T10:36:54;22.30;99.90
20432;DHT22;10375;49.136;10.366;2023-09-19T10:39:21;22.10;99.90
20432;DHT22;10375;49.136;10.366;2023-09-19T10:41:53;21.90;99.90
20432;DHT22;10375;49.136;10.366;2023-09-19T10:44:25;21.50;99.90
20432;DHT22;10375;49.136;10.366;2023-09-19T10:46:53;21.20;99.90
20432;DHT22;10375;49.136;10.366;2023-09-19T10:49:21;21.00;99.90
20432;DHT22;10375;49.136;10.366;2023-09-19T10:51:52;21.00;99.90
20432;DHT22;10375;49.136;10.366;2023-09-19T10:54:24;21.10;99.90
20432;DHT22;10375;49.136;10.366;2023-09-19T10:56:54;21.20;99.90
20432;DHT22;10375;49.136;10.366;2023-09-19T10:59:21;21.20;99.90
20432;DHT22;10375;49.136;10.366;2023-09-19T11:01:52;21.30;99.90
20432;DHT22;10375;49.136;10.366;2023-09-19T11:04:33;21.40;99.90
20432;DHT22;10375;49.136;10.366;2023-09-19T11:09:52;21.60;99.70
20432;DHT22;10375;49.136;10.366;2023-09-19T11:15:08;21.30;99.90
20432;DHT22;10375;49.136;10.366;2023-09-19T11:17:41;21.80;99.90
20432;DHT22;10375;49.136;10.366;2023-09-19T11:30:38;22.80;99.40
20432;DHT22;10375;49.136;10.366;2023-09-19T11:33:22;23.10;98.80
20432;DHT22;10375;49.136;10.366;2023-09-19T11:41:37;23.20;99.60
20432;DHT22;10375;49.136;10.366;2023-09-19T11:46:53;24.20;98.00
20432;DHT22;10375;49.136;10.366;2023-09-19T11:49:32;24.50;96.90
20432;DHT22;10375;49.136;10.366;2023-09-19T11:52:01;24.10;96.20
20432;DHT22;10375;49.136;10.366;2023-09-19T11:54:32;24.00;97.10
20432;DHT22;10375;49.136;10.366;2023-09-19T11:57:00;23.90;96.00
20432;DHT22;10375;49.136;10.366;2023-09-19T11:59:29;23.70;95.70
20432;DHT22;10375;49.136;10.366;2023-09-19T12:02:00;23.90;95.60
20432;DHT22;10375;49.136;10.366;2023-09-19T12:04:44;24.10;94.20
20432;DHT22;10375;49.136;10.366;2023-09-19T12:07:17;23.90;94.60
20432;DHT22;10375;49.136;10.366;2023-09-19T12:09:47;23.90;95.50
20432;DHT22;10375;49.136;10.366;2023-09-19T12:12:24;24.20;95.10
20432;DHT22;10375;49.136;10.366;2023-09-19T12:14:55;23.90;94.00
20432;DHT22;10375;49.136;10.366;2023-09-19T12:17:38;23.70;94.10
20432;DHT22;10375;49.136;10.366;2023-09-19T12:20:10;23.60;95.70
20432;DHT22;10375;49.136;10.366;2023-09-19T12:22:46;23.20;94.40
20432;DHT22;10375;49.136;10.366;2023-09-19T12:25:14;22.70;96.00
20432;DHT22;10375;49.136;10.366;2023-09-19T12:27:44;22.40;95.70
20432;DHT22;10375;49.136;10.366;2023-09-19T12:30:17;22.10;96.00
20432;DHT22;10375;49.136;10.366;2023-09-19T12:32:54;22.00;96.10
20432;DHT22;10375;49.136;10.366;2023-09-19T12:35:32;21.80;97.20
20432;DHT22;10375;49.136;10.366;2023-09-19T12:38:03;21.90;96.70
20432;DHT22;10375;49.136;10.366;2023-09-19T12:40:31;22.00;96.90
20432;DHT22;10375;49.136;10.366;2023-09-19T12:43:02;22.10;96.20
20432;DHT22;10375;49.136;10.366;2023-09-19T12:45:31;22.10;96.60
20432;DHT22;10375;49.136;10.366;2023-09-19T12:48:26;22.50;97.10
20432;DHT22;10375;49.136;10.366;2023-09-19T12:51:03;23.00;97.10
20432;DHT22;10375;49.136;10.366;2023-09-19T12:53:43;23.60;96.00
20432;DHT22;10375;49.136;10.366;2023-09-19T12:56:16;23.80;95.40
20432;DHT22;10375;49.136;10.366;2023-09-19T12:58:57;23.40;95.40
20432;DHT22;10375;49.136;10.366;2023-09-19T13:01:26;23.60;96.20
20432;DHT22;10375;49.136;10.366;2023-09-19T13:04:16;24.10;95.90
20432;DHT22;10375;49.136;10.366;2023-09-19T13:06:49;24.60;94.80
20432;DHT22;10375;49.136;10.366;2023-09-19T13:09:18;25.00;94.50
20432;DHT22;10375;49.136;10.366;2023-09-19T13:11:48;25.30;93.30
20432;DHT22;10375;49.136;10.366;2023-09-19T13:14:25;25.50;92.60
20432;DHT22;10375;49.136;10.366;2023-09-19T13:17:03;25.60;92.00
20432;DHT22;10375;49.136;10.366;2023-09-19T13:19:50;25.60;92.40
20432;DHT22;10375;49.136;10.366;2023-09-19T13:22:43;25.40;92.40
20432;DHT22;10375;49.136;10.366;2023-09-19T13:25:21;25.30;93.00
20432;DHT22;10375;49.136;10.366;2023-09-19T13:27:53;25.30;92.30
20432;DHT22;10375;49.136;10.366;2023-09-19T13:30:22;25.40;92.60
20432;DHT22;10375;49.136;10.366;2023-09-19T13:32:50;25.60;91.20
20432;DHT22;10375;49.136;10.366;2023-09-19T13:35:18;25.40;90.20
20432;DHT22;10375;49.136;10.366;2023-09-19T13:37:47;25.20;91.50
20432;DHT22;10375;49.136;10.366;2023-09-19T13:40:18;24.80;91.20
20432;DHT22;10375;49.136;10.366;2023-09-19T13:42:45;24.70;90.70
20432;DHT22;10375;49.136;10.366;2023-09-19T13:45:12;24.40;90.00
20432;DHT22;10375;49.136;10.366;2023-09-19T13:47:42;24.20;90.10
20432;DHT22;10375;49.136;10.366;2023-09-19T13:50:10;24.40;90.60
20432;DHT22;10375;49.136;10.366;2023-09-19T13:52:37;24.70;91.60
20432;DHT22;10375;49.136;10.366;2023-09-19T13:55:05;25.00;90.30
20432;DHT22;10375;49.136;10.366;2023-09-19T13:57:33;25.20;87.00
20432;DHT22;10375;49.136;10.366;2023-09-19T14:00:01;24.60;89.80
20432;DHT22;10375;49.136;10.366;2023-09-19T14:02:28;24.30;90.40
20432;DHT22;10375;49.136;10.366;2023-09-19T14:04:55;23.70;90.30
20432;DHT22;10375;49.136;10.366;2023-09-19T14:07:22;23.20;91.50
20432;DHT22;10375;49.136;10.366;2023-09-19T14:09:50;23.30;91.40
20432;DHT22;10375;49.136;10.366;2023-09-19T14:12:17;23.40;90.90
20432;DHT22;10375;49.136;10.366;2023-09-19T14:14:44;23.60;90.80
20432;DHT22;10375;49.136;10.366;2023-09-19T14:17:12;23.70;91.00
20432;DHT22;10375;49.136;10.366;2023-09-19T14:19:41;23.90;91.00
20432;DHT22;10375;49.136;10.366;2023-09-19T14:22:12;23.60;90.30
20432;DHT22;10375;49.136;10.366;2023-09-19T14:24:41;23.40;91.30
20432;DHT22;10375;49.136;10.366;2023-09-19T14:27:08;23.40;90.90
20432;DHT22;10375;49.136;10.366;2023-09-19T14:29:36;23.40;90.70
20432;DHT22;10375;49.136;10.366;2023-09-19T14:32:04;23.30;90.60
20432;DHT22;10375;49.136;10.366;2023-09-19T14:34:32;23.10;90.60
20432;DHT22;10375;49.136;10.366;2023-09-19T14:36:59;23.10;91.50
20432;DHT22;10375;49.136;10.366;2023-09-19T14:39:27;23.00;91.30
20432;DHT22;10375;49.136;10.366;2023-09-19T14:41:54;23.10;92.30
20432;DHT22;10375;49.136;10.366;2023-09-19T14:44:21;23.20;91.80
20432;DHT22;10375;49.136;10.366;2023-09-19T14:46:49;23.40;91.00
20432;DHT22;10375;49.136;10.366;2023-09-19T14:49:16;23.30;91.70
20432;DHT22;10375;49.136;10.366;2023-09-19T14:51:43;23.30;91.00
20432;DHT22;10375;49.136;10.366;2023-09-19T14:54:11;23.30;91.70
20432;DHT22;10375;49.136;10.366;2023-09-19T14:56:38;23.30;92.40
20432;DHT22;10375;49.136;10.366;2023-09-19T14:59:09;23.20;92.40
20432;DHT22;10375;49.136;10.366;2023-09-19T15:01:38;23.10;91.60
20432;DHT22;10375;49.136;10.366;2023-09-19T15:04:06;22.80;90.70
20432;DHT22;10375;49.136;10.366;2023-09-19T15:06:33;22.50;91.50
20432;DHT22;10375;49.136;10.366;2023-09-19T15:09:00;22.40;92.60
20432;DHT22;10375;49.136;10.366;2023-09-19T15:11:28;22.40;92.40
20432;DHT22;10375;49.136;10.366;2023-09-19T15:13:55;22.40;92.80
20432;DHT22;10375;49.136;10.366;2023-09-19T15:16:23;22.40;92.40
20432;DHT22;10375;49.136;10.366;2023-09-19T15:18:50;22.30;92.20
20432;DHT22;10375;49.136;10.366;2023-09-19T15:21:19;22.20;92.20
20432;DHT22;10375;49.136;10.366;2023-09-19T15:23:46;22.20;92.60
20432;DHT22;10375;49.136;10.366;2023-09-19T15:26:14;22.10;92.60
20432;DHT22;10375;49.136;10.366;2023-09-19T15:28:48;22.10;93.00
20432;DHT22;10375;49.136;10.366;2023-09-19T15:31:15;22.00;93.40
20432;DHT22;10375;49.136;10.366;2023-09-19T15:33:42;21.90;93.90
20432;DHT22;10375;49.136;10.366;2023-09-19T15:36:11;21.80;93.80
20432;DHT22;10375;49.136;10.366;2023-09-19T15:39:07;21.60;93.30
20432;DHT22;10375;49.136;10.366;2023-09-19T15:41:39;21.50;94.00
20432;DHT22;10375;49.136;10.366;2023-09-19T15:44:15;21.40;94.30
20432;DHT22;10375;49.136;10.366;2023-09-19T15:46:43;21.30;94.50
20432;DHT22;10375;49.136;10.366;2023-09-19T15:49:11;21.30;94.60
20432;DHT22;10375;49.136;10.366;2023-09-19T15:51:39;21.30;94.30
20432;DHT22;10375;49.136;10.366;2023-09-19T15:54:11;21.30;94.80
20432;DHT22;10375;49.136;10.366;2023-09-19T15:56:43;21.20;94.80
20432;DHT22;10375;49.136;10.366;2023-09-19T15:59:11;21.20;94.70
20432;DHT22;10375;49.136;10.366;2023-09-19T16:01:42;21.10;95.30
20432;DHT22;10375;49.136;10.366;2023-09-19T16:04:11;21.00;95.10
20432;DHT22;10375;49.136;10.366;2023-09-19T16:06:40;21.00;95.50
20432;DHT22;10375;49.136;10.366;2023-09-19T16:09:10;20.90;95.80
20432;DHT22;10375;49.136;10.366;2023-09-19T16:11:41;20.80;95.50
20432;DHT22;10375;49.136;10.366;2023-09-19T16:14:08;20.70;95.80
20432;DHT22;10375;49.136;10.366;2023-09-19T16:16:37;20.70;95.90
20432;DHT22;10375;49.136;10.366;2023-09-19T16:19:05;20.60;95.50